createdAt,value
2022-12-18T00:01:28.421Z,15.75
2022-12-18T00:03:56.481Z,16.52
2022-12-18T00:06:24.112Z,15.18
2022-12-18T00:08:51.940Z,16.65
2022-12-18T00:11:22.817Z,15.02
2022-12-18T00:13:50.459Z,14.63
2022-12-18T00:16:21.500Z,13.95
2022-12-18T00:18:53.416Z,13.50
2022-12-18T00:21:21.073Z,14.25
2022-12-18T00:23:49.028Z,13.88
2022-12-18T00:26:27.919Z,14.45
2022-12-18T00:29:00.299Z,14.30
2022-12-18T00:31:27.619Z,14.75
2022-12-18T00:33:58.142Z,14.30
2022-12-18T00:36:28.009Z,13.70
2022-12-18T00:38:58.948Z,14.13
2022-12-18T00:41:44.635Z,14.15
2022-12-18T00:44:16.429Z,14.18
2022-12-18T00:46:43.814Z,14.23
2022-12-18T00:49:16.975Z,13.60
2022-12-18T00:51:43.786Z,15.20
2022-12-18T00:54:11.855Z,14.05
2022-12-18T00:56:48.297Z,14.60
2022-12-18T00:59:16.323Z,13.75
2022-12-18T01:01:46.528Z,16.13
2022-12-18T01:04:13.665Z,14.18
2022-12-18T01:06:40.781Z,14.52
2022-12-18T01:09:07.472Z,15.35
2022-12-18T01:11:36.327Z,12.90
2022-12-18T01:14:03.088Z,13.30
2022-12-18T01:16:29.797Z,13.30
2022-12-18T01:18:56.578Z,13.77
2022-12-18T01:21:24.388Z,14.40
2022-12-18T01:23:57.820Z,14.27
2022-12-18T01:26:26.101Z,15.75
2022-12-18T01:28:55.429Z,14.15
2022-12-18T01:31:25.178Z,14.70
2022-12-18T01:33:55.419Z,15.18
2022-12-18T01:38:54.149Z,12.30
2022-12-18T01:41:25.604Z,14.20
2022-12-18T01:43:55.651Z,12.98
2022-12-18T01:46:29.894Z,13.88
2022-12-18T01:49:00.165Z,14.50
2022-12-18T01:51:28.844Z,14.13
2022-12-18T01:53:57.767Z,14.75
2022-12-18T01:56:24.624Z,14.32
2022-12-18T01:59:04.104Z,14.73
2022-12-18T02:01:32.625Z,13.77
2022-12-18T02:04:22.135Z,14.32
2022-12-18T02:07:05.127Z,13.67
2022-12-18T02:09:47.815Z,13.93
2022-12-18T02:12:56.951Z,13.85
2022-12-18T02:15:46.944Z,13.68
2022-12-18T02:18:44.970Z,12.40
2022-12-18T02:21:11.588Z,12.82
2022-12-18T02:23:56.539Z,14.60
2022-12-18T02:26:38.761Z,13.02
2022-12-18T02:29:17.530Z,14.02
2022-12-18T02:31:49.998Z,13.50
2022-12-18T02:34:19.214Z,15.00
2022-12-18T02:36:48.498Z,14.93
2022-12-18T02:39:16.894Z,15.77
2022-12-18T02:41:46.229Z,15.30
2022-12-18T02:44:14.320Z,14.53
2022-12-18T02:46:44.649Z,15.07
2022-12-18T02:49:11.360Z,14.57
2022-12-18T02:51:55.614Z,15.40
2022-12-18T02:54:31.133Z,14.43
2022-12-18T02:57:03.784Z,14.63
2022-12-18T02:59:47.808Z,14.68
2022-12-18T03:02:26.053Z,15.25
2022-12-18T03:05:10.419Z,14.35
2022-12-18T03:07:54.808Z,13.95
2022-12-18T03:10:27.606Z,15.27
2022-12-18T03:13:23.976Z,15.95
2022-12-18T03:15:56.084Z,13.85
2022-12-18T03:18:43.579Z,15.38
2022-12-18T03:21:12.673Z,14.30
2022-12-18T03:23:48.612Z,14.73
2022-12-18T03:26:19.463Z,14.50
2022-12-18T03:29:03.113Z,15.63
2022-12-18T03:31:32.719Z,15.45
2022-12-18T03:34:07.290Z,14.90
2022-12-18T03:36:33.981Z,14.07
2022-12-18T03:39:00.779Z,15.48
2022-12-18T03:41:34.904Z,15.13
2022-12-18T03:44:40.172Z,15.77
2022-12-18T03:47:14.489Z,13.88
2022-12-18T03:50:14.669Z,14.40
2022-12-18T03:52:56.369Z,14.85
2022-12-18T03:55:28.191Z,15.50
2022-12-18T03:57:55.571Z,13.48
2022-12-18T04:00:22.437Z,14.25
2022-12-18T04:02:53.795Z,14.32
2022-12-18T04:05:22.804Z,13.57
2022-12-18T04:07:50.862Z,13.73
2022-12-18T04:10:18.019Z,16.25
2022-12-18T04:12:45.285Z,14.52
2022-12-18T04:15:15.827Z,13.48
2022-12-18T04:17:49.739Z,14.90
2022-12-18T04:20:17.265Z,15.20
2022-12-18T04:22:46.602Z,12.95
2022-12-18T04:25:13.886Z,15.47
2022-12-18T04:27:40.546Z,15.30
2022-12-18T04:30:07.774Z,14.50
2022-12-18T04:32:36.965Z,14.20
2022-12-18T04:35:05.177Z,14.73
2022-12-18T04:37:34.295Z,14.00
2022-12-18T04:40:03.404Z,14.05
2022-12-18T04:42:30.073Z,14.48
2022-12-18T04:44:56.818Z,14.70
2022-12-18T04:47:25.721Z,13.90
2022-12-18T04:49:52.354Z,14.20
2022-12-18T04:52:19.110Z,15.07
2022-12-18T04:54:45.813Z,15.40
2022-12-18T04:57:12.442Z,14.73
2022-12-18T04:59:39.147Z,14.40
2022-12-18T05:02:05.883Z,14.38
2022-12-18T05:04:34.786Z,13.90
2022-12-18T05:07:03.638Z,13.98
2022-12-18T05:09:30.304Z,14.05
2022-12-18T05:11:56.990Z,13.50
2022-12-18T05:14:24.023Z,14.50
2022-12-18T05:16:50.903Z,14.93
2022-12-18T05:19:17.751Z,13.77
2022-12-18T05:21:44.428Z,13.68
2022-12-18T05:24:12.604Z,14.10
2022-12-18T05:26:39.448Z,14.45
2022-12-18T05:29:08.722Z,14.05
2022-12-18T05:31:39.537Z,13.82
2022-12-18T05:34:09.529Z,13.65
2022-12-18T05:36:37.283Z,13.52
2022-12-18T05:39:04.726Z,13.70
2022-12-18T05:41:37.465Z,13.65
2022-12-18T05:44:04.250Z,12.57
2022-12-18T05:46:34.971Z,12.30
2022-12-18T05:49:04.648Z,13.95
2022-12-18T05:51:33.497Z,13.52
2022-12-18T05:54:00.159Z,12.35
2022-12-18T05:56:28.942Z,14.35
2022-12-18T05:58:56.050Z,14.20
2022-12-18T06:01:27.299Z,13.07
2022-12-18T06:03:54.679Z,14.23
2022-12-18T06:06:26.411Z,14.20
2022-12-18T06:08:54.374Z,13.63
2022-12-18T06:11:27.764Z,12.82
2022-12-18T06:13:58.651Z,14.73
2022-12-18T06:16:26.599Z,13.80
2022-12-18T06:18:53.439Z,12.60
2022-12-18T06:21:22.380Z,13.85
2022-12-18T06:23:49.042Z,13.93
2022-12-18T06:26:15.960Z,14.38
2022-12-18T06:28:45.491Z,14.32
2022-12-18T06:31:12.673Z,14.32
2022-12-18T06:33:40.423Z,13.63
2022-12-18T06:36:09.805Z,13.63
2022-12-18T06:38:38.781Z,12.50
2022-12-18T06:41:17.165Z,13.97
2022-12-18T06:43:44.697Z,15.70
2022-12-18T06:46:12.315Z,14.18
2022-12-18T06:48:39.131Z,13.45
2022-12-18T06:51:08.541Z,13.63
2022-12-18T06:53:35.259Z,15.40
2022-12-18T06:56:10.296Z,13.00
2022-12-18T06:58:37.953Z,14.52
2022-12-18T07:01:06.982Z,14.30
2022-12-18T07:03:33.799Z,13.88
2022-12-18T07:06:03.130Z,14.25
2022-12-18T07:08:31.227Z,12.63
2022-12-18T07:11:03.711Z,12.68
2022-12-18T07:13:30.357Z,13.48
2022-12-18T07:16:04.429Z,13.43
2022-12-18T07:18:31.250Z,13.50
2022-12-18T07:21:04.616Z,14.80
2022-12-18T07:23:32.801Z,13.75
2022-12-18T07:26:13.540Z,13.00
2022-12-18T07:28:41.620Z,13.32
2022-12-18T07:31:13.882Z,13.85
2022-12-18T07:33:43.694Z,12.82
2022-12-18T07:36:11.769Z,15.57
2022-12-18T07:38:38.556Z,14.55
2022-12-18T07:41:12.053Z,13.45
2022-12-18T07:43:40.264Z,15.15
2022-12-18T07:46:10.156Z,13.90
2022-12-18T07:48:36.900Z,13.75
2022-12-18T07:51:06.130Z,13.88
2022-12-18T07:53:36.908Z,13.20
2022-12-18T07:56:27.525Z,14.60
2022-12-18T07:58:55.856Z,13.43
2022-12-18T08:01:22.770Z,13.60
2022-12-18T08:03:52.213Z,13.20
2022-12-18T08:06:24.026Z,13.40
2022-12-18T08:08:55.427Z,14.50
2022-12-18T08:11:23.787Z,14.20
2022-12-18T08:13:50.645Z,13.82
2022-12-18T08:16:18.519Z,14.15
2022-12-18T08:18:46.253Z,13.40
2022-12-18T08:21:23.790Z,14.38
2022-12-18T08:23:51.922Z,13.98
2022-12-18T08:26:19.339Z,12.20
2022-12-18T08:28:51.007Z,13.68
2022-12-18T08:31:21.088Z,14.35
2022-12-18T08:33:53.212Z,14.05
2022-12-18T08:36:21.495Z,13.80
2022-12-18T08:38:48.402Z,13.38
2022-12-18T08:41:17.485Z,15.38
2022-12-18T08:44:02.734Z,11.85
2022-12-18T08:46:35.763Z,13.13
2022-12-18T08:49:03.160Z,11.93
2022-12-18T08:51:30.797Z,12.02
2022-12-18T08:53:57.609Z,13.90
2022-12-18T08:56:24.437Z,13.30
2022-12-18T08:58:55.636Z,13.82
2022-12-18T09:01:23.255Z,13.70
2022-12-18T09:03:50.598Z,12.80
2022-12-18T09:06:19.262Z,13.95
2022-12-18T09:08:46.496Z,12.57
2022-12-18T09:11:25.373Z,12.20
2022-12-18T09:13:52.965Z,13.02
2022-12-18T09:16:27.384Z,12.57
2022-12-18T09:19:01.903Z,12.07
2022-12-18T09:21:35.934Z,12.38
2022-12-18T09:24:04.536Z,12.20
2022-12-18T09:26:33.694Z,12.55
2022-12-18T09:29:00.397Z,12.40
2022-12-18T09:31:29.620Z,13.13
2022-12-18T09:33:57.688Z,13.80
2022-12-18T09:36:24.418Z,12.52
2022-12-18T09:38:51.528Z,11.95
2022-12-18T09:41:48.744Z,14.05
2022-12-18T09:44:24.381Z,12.93
2022-12-18T09:47:00.463Z,11.85
2022-12-18T09:49:35.510Z,12.57
2022-12-18T09:52:10.771Z,12.38
2022-12-18T09:54:47.741Z,11.70
2022-12-18T09:57:18.230Z,12.25
2022-12-18T09:59:50.886Z,11.95
2022-12-18T10:02:22.252Z,12.18
2022-12-18T10:05:16.677Z,12.38
2022-12-18T10:08:05.958Z,11.73
2022-12-18T10:10:48.243Z,12.43
2022-12-18T10:13:21.413Z,12.05
2022-12-18T10:16:18.660Z,12.55
2022-12-18T10:19:18.320Z,12.32
2022-12-18T10:22:19.096Z,12.77
2022-12-18T10:24:48.801Z,11.45
2022-12-18T10:27:17.879Z,12.70
2022-12-18T10:29:47.817Z,11.40
2022-12-18T10:32:21.193Z,12.82
2022-12-18T10:34:49.591Z,12.70
2022-12-18T10:37:21.721Z,12.07
2022-12-18T10:40:19.899Z,11.88
2022-12-18T10:43:05.172Z,11.98
2022-12-18T10:45:36.643Z,13.50
2022-12-18T10:48:07.416Z,12.35
2022-12-18T10:51:09.123Z,12.48
2022-12-18T10:53:27.575Z,13.05
2022-12-18T10:55:57.026Z,12.38
2022-12-18T10:58:33.242Z,12.57
2022-12-18T11:01:21.954Z,11.95
2022-12-18T11:03:51.583Z,11.38
2022-12-18T11:06:25.341Z,13.48
2022-12-18T11:09:19.922Z,13.05
2022-12-18T11:11:53.173Z,12.82
2022-12-18T11:14:30.014Z,12.30
2022-12-18T11:19:57.686Z,14.02
2022-12-18T11:22:28.975Z,14.00
2022-12-18T11:25:32.271Z,13.23
2022-12-18T11:28:02.545Z,13.05
2022-12-18T11:30:38.521Z,12.35
2022-12-18T11:33:15.853Z,14.30
2022-12-18T11:35:45.363Z,14.40
2022-12-18T11:38:32.231Z,14.00
2022-12-18T11:41:43.673Z,13.60
2022-12-18T11:44:17.794Z,13.38
2022-12-18T11:46:56.452Z,14.50
2022-12-18T11:49:29.476Z,14.55
2022-12-18T11:52:03.814Z,14.27
2022-12-18T11:54:30.674Z,14.35
2022-12-18T11:57:12.332Z,14.38
2022-12-18T11:59:42.013Z,13.45
2022-12-18T12:02:30.617Z,13.70
2022-12-18T12:05:48.202Z,14.75
2022-12-18T12:08:39.362Z,13.18
2022-12-18T12:11:18.147Z,13.70
2022-12-18T12:13:44.778Z,13.93
2022-12-18T12:16:14.535Z,14.85
2022-12-18T12:19:19.657Z,14.02
2022-12-18T12:22:04.342Z,13.75
2022-12-18T12:24:52.174Z,13.77
2022-12-18T12:27:56.893Z,15.38
2022-12-18T12:30:38.335Z,15.32
2022-12-18T12:33:40.166Z,14.50
2022-12-18T12:36:30.825Z,14.63
2022-12-18T12:39:04.216Z,15.20
2022-12-18T12:41:53.112Z,14.85
2022-12-18T12:44:35.522Z,14.88
2022-12-18T12:47:20.193Z,14.75
2022-12-18T12:49:51.655Z,15.27
2022-12-18T12:52:44.668Z,14.23
2022-12-18T12:55:24.798Z,14.57
2022-12-18T12:58:05.794Z,14.38
2022-12-18T13:00:47.729Z,15.85
2022-12-18T13:03:30.422Z,14.52
2022-12-18T13:06:10.785Z,14.48
2022-12-18T13:08:58.779Z,15.43
2022-12-18T13:12:02.407Z,15.88
2022-12-18T13:14:33.218Z,14.88
2022-12-18T13:17:22.324Z,15.35
2022-12-18T13:20:10.480Z,16.17
2022-12-18T13:22:46.436Z,16.20
2022-12-18T13:25:39.044Z,15.07
2022-12-18T13:28:13.605Z,15.43
2022-12-18T13:31:07.589Z,15.32
2022-12-18T13:34:01.967Z,16.52
2022-12-18T13:36:37.272Z,15.60
2022-12-18T13:39:35.311Z,15.70
2022-12-18T13:42:05.512Z,14.52
2022-12-18T13:44:40.000Z,15.63
2022-12-18T13:47:40.016Z,15.65
2022-12-18T13:50:36.534Z,16.70
2022-12-18T13:53:06.121Z,15.05
2022-12-18T13:55:33.393Z,16.60
2022-12-18T13:58:12.859Z,15.93
2022-12-18T14:00:44.040Z,16.48
2022-12-18T14:03:36.966Z,15.70
2022-12-18T14:06:09.870Z,15.95
2022-12-18T14:08:42.059Z,16.25
2022-12-18T14:11:23.348Z,16.08
2022-12-18T14:13:51.106Z,16.60
2022-12-18T14:16:20.870Z,15.70
2022-12-18T14:18:55.493Z,17.05
2022-12-18T14:21:30.371Z,15.80
2022-12-18T14:24:19.361Z,16.95
2022-12-18T14:26:50.712Z,16.30
2022-12-18T14:29:30.591Z,15.27
2022-12-18T14:32:13.312Z,16.92
2022-12-18T14:34:47.806Z,17.17
2022-12-18T14:37:18.140Z,16.33
2022-12-18T14:40:07.129Z,16.23
2022-12-18T14:42:38.010Z,16.27
2022-12-18T14:45:36.099Z,16.75
2022-12-18T14:48:26.160Z,16.17
2022-12-18T14:51:00.028Z,17.08
2022-12-18T14:53:53.614Z,16.45
2022-12-18T14:56:28.527Z,16.25
2022-12-18T14:59:04.831Z,17.58
2022-12-18T15:01:36.821Z,16.17
2022-12-18T15:04:05.744Z,16.95
2022-12-18T15:06:38.430Z,16.77
2022-12-18T15:09:25.915Z,17.08
2022-12-18T15:11:58.565Z,16.13
2022-12-18T15:14:32.381Z,16.48
2022-12-18T15:17:01.212Z,16.92
2022-12-18T15:19:44.572Z,16.92
2022-12-18T15:22:36.426Z,16.70
2022-12-18T15:25:21.314Z,15.65
2022-12-18T15:27:48.525Z,17.77
2022-12-18T15:30:22.308Z,16.27
2022-12-18T15:32:50.358Z,15.98
2022-12-18T15:35:25.195Z,16.55
2022-12-18T15:37:53.199Z,17.60
2022-12-18T15:40:24.834Z,17.67
2022-12-18T15:43:15.007Z,18.13
2022-12-18T15:45:41.756Z,17.83
2022-12-18T15:48:23.589Z,17.55
2022-12-18T15:50:57.640Z,17.92
2022-12-18T15:53:26.461Z,17.45
2022-12-18T15:56:14.999Z,16.70
2022-12-18T15:58:44.201Z,17.83
2022-12-18T16:01:12.525Z,17.02
2022-12-18T16:03:39.767Z,17.73
2022-12-18T16:06:07.140Z,18.05
2022-12-18T16:08:36.376Z,17.95
2022-12-18T16:11:06.483Z,17.30
2022-12-18T16:13:34.571Z,18.50
2022-12-18T16:16:01.576Z,17.70
2022-12-18T16:18:30.518Z,19.17
2022-12-18T16:20:57.276Z,18.92
2022-12-18T16:23:23.950Z,19.60
2022-12-18T16:25:52.953Z,18.23
2022-12-18T16:28:19.699Z,17.48
2022-12-18T16:30:46.443Z,18.20
2022-12-18T16:33:16.281Z,19.20
2022-12-18T16:35:54.316Z,17.75
2022-12-18T16:38:21.125Z,18.75
2022-12-18T16:41:06.505Z,18.60
2022-12-18T16:43:33.171Z,17.60
2022-12-18T16:46:04.639Z,18.35
2022-12-18T16:48:31.364Z,19.73
2022-12-18T16:51:04.274Z,18.98
2022-12-18T16:53:33.120Z,19.42
2022-12-18T16:56:00.067Z,19.15
2022-12-18T16:58:28.974Z,20.80
2022-12-18T17:00:55.756Z,20.50
2022-12-18T17:03:24.919Z,19.27
2022-12-18T17:05:53.315Z,20.50
2022-12-18T17:08:20.234Z,18.42
2022-12-18T17:10:46.940Z,20.58
2022-12-18T17:13:13.649Z,19.33
2022-12-18T17:15:42.594Z,18.83
2022-12-18T17:18:11.468Z,20.40
2022-12-18T17:20:40.429Z,20.40
2022-12-18T17:23:11.924Z,19.20
2022-12-18T17:25:40.515Z,18.58
2022-12-18T17:28:07.299Z,20.55
2022-12-18T17:30:36.536Z,20.27
2022-12-18T17:33:03.334Z,19.45
2022-12-18T17:35:32.904Z,21.08
2022-12-18T17:37:59.582Z,19.20
2022-12-18T17:40:26.611Z,21.73
2022-12-18T17:42:53.711Z,20.98
2022-12-18T17:45:20.595Z,21.48
2022-12-18T17:47:49.744Z,20.52
2022-12-18T17:50:16.615Z,20.33
2022-12-18T17:52:45.678Z,21.15
2022-12-18T17:55:12.580Z,22.40
2022-12-18T17:57:39.304Z,21.15
2022-12-18T18:00:06.671Z,20.27
2022-12-18T18:02:35.789Z,21.00
2022-12-18T18:05:02.669Z,21.03
2022-12-18T18:07:31.938Z,20.50
2022-12-18T18:10:03.040Z,20.20
2022-12-18T18:12:48.234Z,20.83
2022-12-18T18:15:15.015Z,20.42
2022-12-18T18:17:44.341Z,20.88
2022-12-18T18:20:11.619Z,20.92
2022-12-18T18:22:38.727Z,20.85
2022-12-18T18:25:11.329Z,20.15
2022-12-18T18:27:40.504Z,20.20
2022-12-18T18:30:08.109Z,20.60
2022-12-18T18:32:38.416Z,20.77
2022-12-18T18:35:12.412Z,20.15
2022-12-18T18:37:48.525Z,19.17
2022-12-18T18:40:16.962Z,20.58
2022-12-18T18:42:43.676Z,20.63
2022-12-18T18:45:10.729Z,21.48
2022-12-18T18:47:37.402Z,22.73
2022-12-18T18:50:04.543Z,21.02
2022-12-18T18:52:31.266Z,20.17
2022-12-18T18:55:12.965Z,20.48
2022-12-18T18:57:40.270Z,21.77
2022-12-18T19:00:07.792Z,22.10
2022-12-18T19:02:34.701Z,20.40
2022-12-18T19:05:01.789Z,21.73
2022-12-18T19:07:30.624Z,20.88
2022-12-18T19:09:59.588Z,20.77
2022-12-18T19:12:49.503Z,20.15
2022-12-18T19:15:16.288Z,21.17
2022-12-18T19:17:47.200Z,21.45
2022-12-18T19:20:15.127Z,20.38
2022-12-18T19:22:42.225Z,20.13
2022-12-18T19:25:09.985Z,20.17
2022-12-18T19:27:40.023Z,19.65
2022-12-18T19:30:10.063Z,20.40
2022-12-18T19:32:36.773Z,19.83
2022-12-18T19:35:06.079Z,20.35
2022-12-18T19:37:35.494Z,20.95
2022-12-18T19:40:02.710Z,20.63
2022-12-18T19:42:35.923Z,20.88
2022-12-18T19:45:05.139Z,21.23
2022-12-18T19:47:31.948Z,20.70
2022-12-18T19:50:01.189Z,20.23
2022-12-18T19:52:27.923Z,19.83
2022-12-18T19:54:56.887Z,21.15
2022-12-18T19:57:25.942Z,19.80
2022-12-18T19:59:52.655Z,20.08
2022-12-18T20:02:21.914Z,19.10
2022-12-18T20:07:16.165Z,19.83
2022-12-18T20:09:43.214Z,18.88
2022-12-18T20:12:14.979Z,19.45
2022-12-18T20:14:41.890Z,21.20
2022-12-18T20:17:08.651Z,21.13
2022-12-18T20:19:36.603Z,21.00
2022-12-18T20:22:03.879Z,21.60
2022-12-18T20:24:30.630Z,20.35
2022-12-18T20:26:57.503Z,20.65
2022-12-18T20:29:24.684Z,19.75
2022-12-18T20:31:51.654Z,19.88
2022-12-18T20:34:20.850Z,18.95
2022-12-18T20:36:50.696Z,19.30
2022-12-18T20:39:18.112Z,20.70
2022-12-18T20:41:46.051Z,20.38
2022-12-18T20:44:23.004Z,19.25
2022-12-18T20:46:52.928Z,21.52
2022-12-18T20:49:19.632Z,20.30
2022-12-18T20:51:50.295Z,20.75
2022-12-18T20:54:23.605Z,18.88
2022-12-18T20:56:50.693Z,22.27
2022-12-18T20:59:18.094Z,20.25
2022-12-18T21:01:48.552Z,20.40
2022-12-18T21:04:20.485Z,20.88
2022-12-18T21:07:00.455Z,21.70
2022-12-18T21:09:30.363Z,20.77
2022-12-18T21:12:23.396Z,18.77
2022-12-18T21:14:52.631Z,20.48
2022-12-18T21:17:19.358Z,20.13
2022-12-18T21:19:46.064Z,20.13
2022-12-18T21:22:13.417Z,20.35
2022-12-18T21:24:42.810Z,20.65
2022-12-18T21:27:13.715Z,21.37
2022-12-18T21:29:44.662Z,19.17
2022-12-18T21:32:11.738Z,19.02
2022-12-18T21:34:39.630Z,19.80
2022-12-18T21:37:11.125Z,23.35
2022-12-18T21:39:38.655Z,23.02
2022-12-18T21:42:24.037Z,19.20
2022-12-18T21:44:52.996Z,20.67
2022-12-18T21:47:23.335Z,20.23
2022-12-18T21:49:53.857Z,20.02
2022-12-18T21:52:27.848Z,19.02
2022-12-18T21:55:03.293Z,20.20
2022-12-18T21:57:35.065Z,19.60
2022-12-18T22:00:02.230Z,19.10
2022-12-18T22:02:29.208Z,20.80
2022-12-18T22:04:56.121Z,21.13
2022-12-18T22:07:23.369Z,20.38
2022-12-18T22:09:52.269Z,20.08
2022-12-18T22:12:35.164Z,20.25
2022-12-18T22:15:04.310Z,18.85
2022-12-18T22:17:31.090Z,19.23
2022-12-18T22:19:57.840Z,19.77
2022-12-18T22:22:26.838Z,21.77
2022-12-18T22:24:53.901Z,20.50
2022-12-18T22:27:20.671Z,22.55
2022-12-18T22:30:04.558Z,20.27
2022-12-18T22:32:36.029Z,21.65
2022-12-18T22:35:09.534Z,21.60
2022-12-18T22:37:43.337Z,20.80
2022-12-18T22:40:24.652Z,21.80
2022-12-18T22:42:53.312Z,21.52
2022-12-18T22:45:23.187Z,21.10
2022-12-18T22:47:49.948Z,19.80
2022-12-18T22:50:16.686Z,21.02
2022-12-18T22:52:43.461Z,20.67
2022-12-18T22:55:10.408Z,20.77
2022-12-18T22:57:37.528Z,18.58
2022-12-18T23:00:07.314Z,19.48
2022-12-18T23:02:34.110Z,19.35
2022-12-18T23:05:00.902Z,18.67
2022-12-18T23:07:27.575Z,19.92
2022-12-18T23:10:01.056Z,20.73
2022-12-18T23:12:28.119Z,18.48
2022-12-18T23:14:54.864Z,20.17
2022-12-18T23:17:21.761Z,20.65
2022-12-18T23:19:51.039Z,20.15
2022-12-18T23:22:18.105Z,17.97
2022-12-18T23:24:47.245Z,18.52
2022-12-18T23:27:17.549Z,19.27
2022-12-18T23:29:46.716Z,19.92
2022-12-18T23:32:19.008Z,20.27
2022-12-18T23:34:45.657Z,20.75
2022-12-18T23:37:24.968Z,20.33
2022-12-18T23:40:01.243Z,18.70
2022-12-18T23:42:27.923Z,20.30
2022-12-18T23:44:56.975Z,19.70
2022-12-18T23:47:25.724Z,19.23
2022-12-18T23:49:55.419Z,19.65
2022-12-18T23:52:22.137Z,18.75
2022-12-18T23:54:48.974Z,19.92
2022-12-18T23:57:15.780Z,21.13
2022-12-18T23:59:42.530Z,22.38
